Terminal Aerodrome Forecast
Issued by NWS

Home | Current Version | Previous Version | Text Only | Print | Product List | Glossary On
Versions: 1 2 3 4 5 6 7 8 9 10 11 12 13 14 15 16 17
000
FTUS45 KABQ 250624 CCA
TAFLVS
TAF COR
KLVS 250624Z 2506/2606 16006KT P6SM OVC025
      TEMPO 2508/2511 OVC007
     FM251100 15008KT P6SM OVC007
     FM251500 17011KT P6SM BKN025
     FM252000 17013G22KT P6SM VCSH BKN060
      TEMPO 2523/2603 VRB20G35KT 5SM -TSRA OVC030CB=

USA.gov is the U.S. government's official web portal to all federal, state and local government web resources and services.